createdAt,value
2019-01-06T00:00:11.140Z,17.87
2019-01-06T00:02:54.656Z,21.13
2019-01-06T00:05:32.402Z,23.30
2019-01-06T00:08:15.637Z,25.63
2019-01-06T00:10:47.375Z,20.13
2019-01-06T00:13:34.691Z,24.70
2019-01-06T00:16:09.164Z,21.40
2019-01-06T00:18:58.851Z,24.97
2019-01-06T00:21:46.584Z,27.00
2019-01-06T00:24:34.178Z,24.47
2019-01-06T00:27:23.325Z,24.00
2019-01-06T00:29:56.764Z,24.23
2019-01-06T00:32:30.935Z,24.70
2019-01-06T00:35:05.062Z,26.33
2019-01-06T00:37:45.148Z,24.43
2019-01-06T00:40:26.159Z,21.27
2019-01-06T00:43:06.535Z,20.37
2019-01-06T00:45:40.838Z,20.13
2019-01-06T00:48:12.270Z,23.67
2019-01-06T00:50:59.485Z,19.20
2019-01-06T00:53:39.677Z,19.50
2019-01-06T00:56:11.162Z,23.47
2019-01-06T00:58:42.624Z,21.43
2019-01-06T01:01:29.713Z,21.00
2019-01-06T01:04:04.036Z,21.70
2019-01-06T01:06:44.596Z,25.67
2019-01-06T01:09:45.195Z,25.93
2019-01-06T01:12:22.647Z,25.37
2019-01-06T01:15:03.076Z,30.63
2019-01-06T01:17:50.431Z,23.80
2019-01-06T01:20:24.841Z,23.83
2019-01-06T01:22:56.310Z,24.97
2019-01-06T01:25:45.913Z,33.00
2019-01-06T01:28:17.319Z,28.73
2019-01-06T01:31:03.669Z,27.27
2019-01-06T01:33:49.932Z,23.10
2019-01-06T01:36:37.114Z,20.73
2019-01-06T01:39:11.034Z,22.83
2019-01-06T01:41:57.368Z,21.70
2019-01-06T01:44:31.659Z,28.83
2019-01-06T01:47:03.144Z,22.03
2019-01-06T01:49:34.464Z,22.90
2019-01-06T01:52:09.079Z,21.90
2019-01-06T01:54:40.550Z,22.00
2019-01-06T01:57:14.776Z,26.50
2019-01-06T01:59:55.007Z,26.03
2019-01-06T02:02:29.426Z,23.17
2019-01-06T02:05:00.792Z,22.13
2019-01-06T02:07:48.153Z,18.27
2019-01-06T02:10:19.583Z,21.57
2019-01-06T02:13:07.020Z,24.03
2019-01-06T02:15:44.509Z,21.33
2019-01-06T02:18:34.548Z,20.80
2019-01-06T02:21:05.943Z,23.30
2019-01-06T02:23:37.288Z,18.07
2019-01-06T02:26:20.616Z,14.57
2019-01-06T02:28:56.233Z,15.80
2019-01-06T02:31:43.793Z,14.10
2019-01-06T02:34:31.475Z,13.73
2019-01-06T02:37:18.835Z,13.37
2019-01-06T02:40:03.592Z,9.57
2019-01-06T02:42:40.878Z,10.40
2019-01-06T02:45:12.273Z,11.17
2019-01-06T02:48:01.273Z,13.63
2019-01-06T02:50:38.539Z,11.77
2019-01-06T02:53:09.901Z,10.60
2019-01-06T02:55:57.271Z,12.30
2019-01-06T02:58:37.297Z,12.17
2019-01-06T03:01:08.761Z,12.57
2019-01-06T03:03:43.102Z,13.97
2019-01-06T03:06:14.491Z,13.43
2019-01-06T03:08:48.618Z,12.93
2019-01-06T03:11:23.129Z,15.20
2019-01-06T03:14:09.076Z,15.73
2019-01-06T03:16:46.634Z,18.07
2019-01-06T03:19:33.104Z,13.63
2019-01-06T03:22:07.339Z,15.23
2019-01-06T03:24:54.614Z,13.27
2019-01-06T03:27:28.763Z,12.07
2019-01-06T03:30:03.182Z,11.57
2019-01-06T03:32:37.182Z,13.07
2019-01-06T03:35:17.544Z,14.13
2019-01-06T03:38:05.140Z,12.23
2019-01-06T03:40:36.542Z,12.33
2019-01-06T03:43:22.810Z,14.03
2019-01-06T03:46:10.380Z,14.67
2019-01-06T03:48:57.563Z,11.80
2019-01-06T03:51:38.306Z,13.90
2019-01-06T03:54:25.391Z,12.33
2019-01-06T03:56:56.866Z,13.37
2019-01-06T03:59:43.828Z,11.30
2019-01-06T04:02:30.002Z,9.10
2019-01-06T04:05:17.585Z,13.43
2019-01-06T04:07:55.034Z,12.10
2019-01-06T04:10:44.637Z,11.40
2019-01-06T04:13:31.963Z,12.30
2019-01-06T04:16:19.349Z,8.87
2019-01-06T04:19:05.779Z,9.17
2019-01-06T04:21:52.312Z,12.83
2019-01-06T04:24:30.786Z,10.23
2019-01-06T04:27:04.847Z,10.70
2019-01-06T04:29:40.115Z,8.40
2019-01-06T04:32:29.290Z,13.77
2019-01-06T04:35:16.713Z,9.53
2019-01-06T04:37:50.738Z,11.60
2019-01-06T04:40:38.301Z,10.50
2019-01-06T04:43:27.778Z,10.77
2019-01-06T04:46:15.233Z,10.93
2019-01-06T04:48:46.571Z,10.40
2019-01-06T04:51:23.874Z,9.97
2019-01-06T04:53:55.210Z,12.87
2019-01-06T04:56:32.618Z,15.23
2019-01-06T04:59:19.903Z,11.43
2019-01-06T05:01:54.088Z,11.20
2019-01-06T05:04:28.479Z,11.40
2019-01-06T05:07:16.263Z,10.03
2019-01-06T05:09:53.071Z,9.87
2019-01-06T05:12:33.494Z,10.83
2019-01-06T05:15:19.779Z,9.03
2019-01-06T05:18:03.022Z,11.13
2019-01-06T05:20:34.394Z,10.70
2019-01-06T05:23:05.796Z,8.43
2019-01-06T05:25:45.844Z,10.00
2019-01-06T05:28:33.199Z,9.60
2019-01-06T05:31:13.302Z,12.23
2019-01-06T05:34:00.818Z,10.97
2019-01-06T05:36:32.169Z,11.97
2019-01-06T05:39:06.270Z,11.00
2019-01-06T05:41:37.595Z,11.97
2019-01-06T05:44:08.988Z,10.30
2019-01-06T05:46:43.429Z,13.53
2019-01-06T05:49:35.925Z,12.57
2019-01-06T05:52:10.138Z,12.17
2019-01-06T05:54:41.522Z,11.63
2019-01-06T05:57:25.005Z,13.23
2019-01-06T05:59:59.001Z,13.23
2019-01-06T06:02:33.329Z,10.03
2019-01-06T06:05:22.951Z,11.23
2019-01-06T06:07:55.823Z,12.03
2019-01-06T06:10:27.359Z,15.13
2019-01-06T06:13:04.628Z,9.00
2019-01-06T06:15:38.930Z,9.93
2019-01-06T06:18:26.507Z,13.37
2019-01-06T06:20:57.848Z,10.03
2019-01-06T06:23:29.197Z,12.30
2019-01-06T06:26:06.290Z,13.97
2019-01-06T06:28:53.539Z,12.70
2019-01-06T06:31:24.877Z,10.57
2019-01-06T06:34:12.946Z,10.50
2019-01-06T06:36:47.276Z,10.90
2019-01-06T06:39:24.345Z,17.13
2019-01-06T06:41:55.696Z,10.57
2019-01-06T06:44:42.842Z,10.97
2019-01-06T06:47:30.702Z,13.67
2019-01-06T06:50:02.093Z,9.30
2019-01-06T06:52:48.327Z,11.70
2019-01-06T06:55:35.545Z,14.87
2019-01-06T06:58:08.260Z,15.03
2019-01-06T07:01:00.188Z,16.33
2019-01-06T07:03:37.342Z,16.80
2019-01-06T07:06:11.447Z,13.60
2019-01-06T07:08:42.781Z,16.23
2019-01-06T07:11:20.069Z,15.83
2019-01-06T07:14:07.552Z,13.80
2019-01-06T07:17:20.930Z,12.07
2019-01-06T07:20:04.379Z,15.43
2019-01-06T07:22:54.505Z,17.13
2019-01-06T07:25:28.642Z,14.87
2019-01-06T07:28:00.012Z,15.27
2019-01-06T07:30:34.284Z,16.53
2019-01-06T07:33:05.677Z,18.70
2019-01-06T07:35:40.036Z,19.43
2019-01-06T07:38:12.208Z,17.57
2019-01-06T07:40:59.620Z,18.80
2019-01-06T07:43:47.425Z,15.47
2019-01-06T07:46:18.814Z,17.70
2019-01-06T07:49:06.287Z,17.67
2019-01-06T07:51:49.159Z,19.50
2019-01-06T07:54:36.533Z,20.63
2019-01-06T07:57:07.928Z,17.67
2019-01-06T07:59:45.405Z,22.07
2019-01-06T08:02:19.668Z,20.17
2019-01-06T08:05:07.158Z,20.47
2019-01-06T08:07:41.289Z,22.50
2019-01-06T08:10:18.424Z,22.67
2019-01-06T08:13:06.189Z,23.77
2019-01-06T08:15:53.782Z,20.43
2019-01-06T08:18:39.963Z,21.40
2019-01-06T08:21:27.142Z,22.00
2019-01-06T08:24:10.534Z,22.87
2019-01-06T08:26:58.190Z,24.20
2019-01-06T08:29:45.758Z,23.47
2019-01-06T08:32:32.242Z,21.63
2019-01-06T08:35:19.645Z,22.23
2019-01-06T08:37:57.006Z,21.80
2019-01-06T08:40:34.476Z,23.07
2019-01-06T08:43:23.920Z,25.03
2019-01-06T08:46:01.189Z,27.37
2019-01-06T08:48:32.635Z,27.37
2019-01-06T08:51:09.932Z,30.57
2019-01-06T08:53:57.498Z,26.27
2019-01-06T08:56:28.853Z,21.70
2019-01-06T08:59:02.784Z,25.43
2019-01-06T09:01:50.177Z,15.60
2019-01-06T09:04:21.531Z,13.57
2019-01-06T09:06:58.732Z,14.57
2019-01-06T09:09:46.295Z,13.83
2019-01-06T09:12:17.643Z,14.03
2019-01-06T09:14:49.078Z,11.47
2019-01-06T09:17:32.246Z,13.47
2019-01-06T09:20:15.712Z,13.73
2019-01-06T09:22:49.823Z,11.13
2019-01-06T09:25:41.191Z,9.93
2019-01-06T09:28:26.304Z,11.20
2019-01-06T09:31:00.372Z,11.20
2019-01-06T09:33:46.889Z,12.83
2019-01-06T09:36:18.320Z,12.07
2019-01-06T09:38:49.698Z,10.43
2019-01-06T09:41:21.110Z,10.73
2019-01-06T09:43:55.446Z,10.47
2019-01-06T09:46:29.897Z,11.30
2019-01-06T09:49:13.346Z,9.70
2019-01-06T09:51:44.724Z,8.87
2019-01-06T09:54:18.753Z,8.43
2019-01-06T09:56:55.816Z,8.43
2019-01-06T09:59:27.164Z,6.33
2019-01-06T10:02:07.409Z,5.77
2019-01-06T10:04:41.590Z,5.10
2019-01-06T10:07:15.709Z,6.00
2019-01-06T10:09:49.816Z,4.47
2019-01-06T10:12:33.243Z,6.57
2019-01-06T10:15:20.862Z,3.20
2019-01-06T10:17:57.886Z,5.13
2019-01-06T10:20:29.419Z,4.53
2019-01-06T10:23:00.805Z,5.20
2019-01-06T10:25:32.244Z,6.00
2019-01-06T10:28:19.733Z,3.50
2019-01-06T10:30:51.175Z,4.57
2019-01-06T10:33:22.691Z,5.00
2019-01-06T10:35:57.124Z,3.83
2019-01-06T10:38:31.755Z,4.40
2019-01-06T10:41:03.271Z,4.73
2019-01-06T10:43:43.603Z,5.17
2019-01-06T10:46:20.856Z,4.37
2019-01-06T10:48:54.923Z,5.00
2019-01-06T10:51:42.589Z,3.10
2019-01-06T10:54:27.376Z,2.47
2019-01-06T10:56:58.946Z,3.77
2019-01-06T10:59:30.324Z,3.27
2019-01-06T11:02:01.801Z,3.23
2019-01-06T11:04:36.166Z,3.27
2019-01-06T11:07:30.115Z,4.97
2019-01-06T11:10:11.237Z,4.30
2019-01-06T11:12:42.647Z,6.63
2019-01-06T11:15:40.791Z,3.27
2019-01-06T11:18:30.267Z,2.83
2019-01-06T11:21:21.088Z,4.37
2019-01-06T11:24:22.200Z,3.40
2019-01-06T11:27:18.571Z,4.30
2019-01-06T11:29:53.016Z,5.00
2019-01-06T11:32:30.134Z,4.57
2019-01-06T11:35:17.554Z,4.63
2019-01-06T11:38:07.484Z,6.30
2019-01-06T11:40:57.257Z,6.67
2019-01-06T11:43:46.977Z,10.27
2019-01-06T11:46:37.807Z,6.27
2019-01-06T11:49:36.973Z,5.73
2019-01-06T11:52:26.243Z,6.93
2019-01-06T11:55:05.152Z,7.73
2019-01-06T11:57:36.574Z,6.30
2019-01-06T12:11:04.321Z,7.63
2019-01-06T12:13:50.697Z,5.97
2019-01-06T12:16:33.532Z,6.03
2019-01-06T12:19:24.808Z,8.13
2019-01-06T12:21:58.657Z,6.37
2019-01-06T12:24:33.994Z,6.53
2019-01-06T12:27:17.619Z,7.17
2019-01-06T12:32:45.205Z,8.87
2019-01-06T12:35:31.486Z,7.33
2019-01-06T12:38:29.984Z,7.23
2019-01-06T12:41:04.311Z,5.50
2019-01-06T12:43:47.902Z,4.93
2019-01-06T12:46:35.338Z,5.63
2019-01-06T12:49:22.604Z,5.27
2019-01-06T12:52:07.620Z,5.53
2019-01-06T12:54:42.618Z,4.30
2019-01-06T12:57:14.097Z,5.07
2019-01-06T13:00:01.640Z,4.17
2019-01-06T13:02:46.976Z,3.67
2019-01-06T13:05:33.249Z,2.73
2019-01-06T13:08:22.297Z,2.93
2019-01-06T13:10:57.597Z,1.80
2019-01-06T13:13:48.021Z,2.93
2019-01-06T13:16:27.120Z,1.97
2019-01-06T13:21:56.900Z,2.80
2019-01-06T13:24:37.930Z,2.27
2019-01-06T13:27:23.597Z,2.73
2019-01-06T13:29:55.062Z,1.53
2019-01-06T13:32:39.763Z,2.00
2019-01-06T13:35:19.576Z,2.60
2019-01-06T13:37:50.982Z,1.73
2019-01-06T13:40:38.470Z,1.50
2019-01-06T13:43:13.635Z,2.43
2019-01-06T13:46:03.732Z,1.90
2019-01-06T13:48:38.675Z,2.30
2019-01-06T13:51:19.473Z,2.43
2019-01-06T13:53:55.293Z,2.43
2019-01-06T13:56:26.722Z,1.67
2019-01-06T13:59:01.060Z,2.03
2019-01-06T14:01:38.240Z,2.03
2019-01-06T14:04:15.867Z,3.13
2019-01-06T14:06:47.355Z,3.20
2019-01-06T14:09:18.971Z,2.03
2019-01-06T14:11:50.465Z,1.70
2019-01-06T14:14:22.102Z,2.00
2019-01-06T14:16:59.338Z,1.90
2019-01-06T14:19:39.829Z,2.77
2019-01-06T14:22:17.427Z,2.40
2019-01-06T14:24:48.921Z,2.00
2019-01-06T14:27:23.083Z,1.70
2019-01-06T14:29:54.433Z,1.83
2019-01-06T14:32:25.883Z,2.00
2019-01-06T14:34:57.218Z,2.00
2019-01-06T14:37:40.501Z,2.40
2019-01-06T14:40:17.844Z,3.43
2019-01-06T14:43:05.554Z,4.50
2019-01-06T14:45:39.703Z,2.80
2019-01-06T14:48:15.501Z,4.23
2019-01-06T14:50:56.696Z,3.00
2019-01-06T14:53:34.376Z,4.17
2019-01-06T14:56:22.156Z,4.80
2019-01-06T14:58:59.392Z,4.03
2019-01-06T15:01:46.305Z,3.60
2019-01-06T15:04:26.712Z,4.23
2019-01-06T15:07:07.318Z,3.80
2019-01-06T15:09:41.921Z,3.87
2019-01-06T15:12:29.310Z,3.70
2019-01-06T15:15:01.031Z,3.53
2019-01-06T15:17:38.125Z,4.17
2019-01-06T15:20:09.568Z,2.60
2019-01-06T15:22:55.842Z,3.63
2019-01-06T15:25:30.449Z,2.40
2019-01-06T15:28:11.805Z,2.67
2019-01-06T15:30:59.267Z,2.90
2019-01-06T15:33:48.651Z,3.30
2019-01-06T15:36:37.876Z,2.90
2019-01-06T15:39:25.513Z,3.00
2019-01-06T15:41:58.091Z,3.03
2019-01-06T15:44:36.169Z,3.13
2019-01-06T15:47:25.191Z,2.63
2019-01-06T15:49:56.532Z,2.60
2019-01-06T15:52:28.465Z,2.33
2019-01-06T15:55:01.702Z,4.30
2019-01-06T15:57:53.522Z,3.80
2019-01-06T16:00:40.692Z,3.67
2019-01-06T16:03:21.159Z,4.37
2019-01-06T16:05:52.543Z,5.70
2019-01-06T16:08:41.523Z,3.20
2019-01-06T16:11:21.680Z,3.23
2019-01-06T16:13:52.997Z,2.00
2019-01-06T16:16:30.015Z,3.17
2019-01-06T16:19:10.172Z,3.23
2019-01-06T16:21:50.377Z,4.40
2019-01-06T16:24:21.549Z,5.03
2019-01-06T16:27:08.846Z,5.83
2019-01-06T16:29:40.222Z,7.07
2019-01-06T16:32:13.043Z,4.57
2019-01-06T16:35:00.773Z,6.23
2019-01-06T16:37:38.129Z,3.90
2019-01-06T16:40:10.142Z,3.90
2019-01-06T16:42:46.813Z,5.30
2019-01-06T16:45:24.254Z,5.33
2019-01-06T16:48:11.561Z,4.67
2019-01-06T16:50:51.684Z,8.33
2019-01-06T16:53:41.096Z,5.30
2019-01-06T16:56:13.262Z,5.90
2019-01-06T16:58:44.591Z,6.47
2019-01-06T17:01:32.064Z,7.37
2019-01-06T17:04:19.357Z,10.00
2019-01-06T17:06:53.477Z,8.27
2019-01-06T17:09:24.869Z,6.83
2019-01-06T17:12:02.021Z,6.47
2019-01-06T17:14:51.585Z,5.13
2019-01-06T17:17:38.658Z,5.10
2019-01-06T17:20:13.023Z,8.03
2019-01-06T17:22:53.181Z,7.43
2019-01-06T17:25:30.194Z,5.87
2019-01-06T17:28:13.502Z,12.27
2019-01-06T17:30:44.862Z,9.93
2019-01-06T17:33:16.216Z,13.63
2019-01-06T17:36:03.941Z,12.70
2019-01-06T17:38:38.472Z,15.27
2019-01-06T17:41:15.813Z,19.90
2019-01-06T17:43:49.926Z,20.00
2019-01-06T17:46:36.039Z,21.93
2019-01-06T17:49:13.180Z,23.07
2019-01-06T17:51:47.614Z,23.00
2019-01-06T17:54:33.992Z,24.13
2019-01-06T17:57:21.578Z,23.40
2019-01-06T17:59:53.185Z,28.37
2019-01-06T18:02:42.324Z,25.23
2019-01-06T18:05:28.812Z,25.97
2019-01-06T18:08:00.141Z,21.97
2019-01-06T18:10:47.595Z,22.57
2019-01-06T18:13:18.975Z,22.67
2019-01-06T18:15:50.314Z,24.77
2019-01-06T18:18:37.905Z,26.00
2019-01-06T18:21:11.835Z,22.93
2019-01-06T18:23:43.423Z,23.13
2019-01-06T18:26:20.743Z,17.63
2019-01-06T18:28:52.263Z,25.83
2019-01-06T18:31:29.701Z,17.63
2019-01-06T18:34:17.664Z,16.73
2019-01-06T18:37:01.474Z,22.93
2019-01-06T18:39:32.812Z,21.93
2019-01-06T18:42:10.809Z,22.40
2019-01-06T18:44:49.413Z,21.37
2019-01-06T18:47:23.318Z,25.40
2019-01-06T18:50:04.553Z,22.63
2019-01-06T18:52:42.656Z,20.30
2019-01-06T18:55:22.917Z,17.70
2019-01-06T18:57:59.833Z,23.43
2019-01-06T19:00:31.308Z,22.13
2019-01-06T19:03:17.676Z,20.00
2019-01-06T19:06:11.540Z,20.03
2019-01-06T19:11:22.297Z,22.70
2019-01-06T19:14:00.544Z,21.40
2019-01-06T19:16:33.307Z,24.53
2019-01-06T19:19:13.939Z,20.80
2019-01-06T19:21:50.278Z,20.63
2019-01-06T19:24:38.939Z,20.97
2019-01-06T19:27:26.213Z,25.97
2019-01-06T19:30:01.376Z,22.10
2019-01-06T19:32:38.974Z,20.93
2019-01-06T19:35:25.197Z,21.73
2019-01-06T19:38:05.510Z,24.23
2019-01-06T19:40:51.917Z,17.97
2019-01-06T19:43:25.922Z,21.33
2019-01-06T19:46:03.277Z,23.77
2019-01-06T19:59:32.383Z,27.07
2019-01-06T20:05:59.062Z,26.67
2019-01-06T20:08:42.228Z,27.83
2019-01-06T20:11:16.476Z,31.83
2019-01-06T20:14:05.842Z,30.47
2019-01-06T20:16:51.777Z,36.00
2019-01-06T20:19:23.113Z,31.27
2019-01-06T20:22:06.785Z,32.63
2019-01-06T20:24:40.983Z,34.07
2019-01-06T20:27:30.000Z,36.70
2019-01-06T20:30:17.330Z,34.53
2019-01-06T20:33:04.798Z,33.03
2019-01-06T20:35:52.280Z,31.47
2019-01-06T20:38:26.394Z,35.47
2019-01-06T20:41:14.163Z,34.43
2019-01-06T20:43:51.405Z,39.73
2019-01-06T20:46:41.513Z,32.23
2019-01-06T20:49:18.879Z,38.47
2019-01-06T20:52:06.890Z,34.73
2019-01-06T20:54:49.435Z,39.60
2019-01-06T20:57:29.536Z,37.23
2019-01-06T21:00:10.771Z,43.73
2019-01-06T21:02:57.766Z,39.00
2019-01-06T21:05:41.191Z,38.60
2019-01-06T21:08:15.623Z,35.50
2019-01-06T21:10:49.979Z,40.13
2019-01-06T21:13:38.281Z,37.23
2019-01-06T21:16:20.414Z,37.53
2019-01-06T21:18:51.796Z,36.63
2019-01-06T21:21:25.935Z,37.13
2019-01-06T21:23:57.304Z,38.17
2019-01-06T21:26:34.618Z,37.33
2019-01-06T21:29:11.847Z,38.00
2019-01-06T21:31:44.643Z,36.50
2019-01-06T21:34:33.664Z,38.90
2019-01-06T21:37:22.334Z,34.67
2019-01-06T21:39:53.880Z,34.13
2019-01-06T21:42:41.455Z,34.13
2019-01-06T21:45:12.917Z,38.00
2019-01-06T21:47:47.488Z,41.47
2019-01-06T21:50:18.931Z,39.80
2019-01-06T21:52:56.129Z,35.43
2019-01-06T21:55:39.646Z,38.70
2019-01-06T21:58:25.942Z,38.27
2019-01-06T22:01:15.405Z,34.37
2019-01-06T22:03:46.819Z,39.80
2019-01-06T22:06:31.845Z,36.10
2019-01-06T22:09:04.660Z,34.97
2019-01-06T22:11:37.100Z,37.93
2019-01-06T22:14:18.752Z,37.33
2019-01-06T22:17:04.483Z,34.40
2019-01-06T22:19:53.553Z,34.50
2019-01-06T22:22:29.548Z,38.13
2019-01-06T22:25:01.662Z,36.23
2019-01-06T22:27:37.241Z,35.33
2019-01-06T22:30:16.817Z,34.13
2019-01-06T22:33:05.939Z,39.20
2019-01-06T22:35:51.759Z,34.10
2019-01-06T22:38:33.451Z,29.90
2019-01-06T22:41:14.978Z,32.37
2019-01-06T22:43:50.317Z,35.53
2019-01-06T22:46:40.193Z,37.23
2019-01-06T22:49:16.269Z,34.50
2019-01-06T22:51:51.416Z,39.30
2019-01-06T22:54:40.125Z,38.03
2019-01-06T22:57:29.444Z,39.43
2019-01-06T23:00:03.212Z,40.83
2019-01-06T23:02:44.481Z,38.33
2019-01-06T23:05:17.109Z,38.33
2019-01-06T23:08:01.578Z,38.47
2019-01-06T23:10:35.067Z,36.87
2019-01-06T23:13:23.745Z,40.97
2019-01-06T23:15:56.770Z,41.20
2019-01-06T23:18:32.132Z,39.50
2019-01-06T23:21:04.701Z,37.20
2019-01-06T23:23:46.562Z,34.70
2019-01-06T23:26:35.352Z,38.57
2019-01-06T23:29:11.549Z,36.67
2019-01-06T23:32:21.094Z,36.57
2019-01-06T23:34:45.280Z,37.53
2019-01-06T23:37:27.067Z,35.10
2019-01-06T23:40:09.557Z,34.03
2019-01-06T23:42:42.142Z,34.50
2019-01-06T23:45:33.495Z,29.27
2019-01-06T23:48:10.003Z,31.33
2019-01-06T23:50:53.498Z,30.50
2019-01-06T23:53:39.165Z,32.07
2019-01-06T23:56:27.809Z,31.60
2019-01-06T23:59:17.415Z,32.97
